createdAt,value
2018-05-26T00:01:02.841Z,2.70
2018-05-26T00:03:30.169Z,2.37
2018-05-26T00:05:57.463Z,2.50
2018-05-26T00:08:24.762Z,2.40
2018-05-26T00:10:52.077Z,2.50
2018-05-26T00:13:19.348Z,2.45
2018-05-26T00:15:46.665Z,2.50
2018-05-26T00:18:14.014Z,2.33
2018-05-26T00:20:41.586Z,2.40
2018-05-26T00:23:09.150Z,2.70
2018-05-26T00:25:36.448Z,2.35
2018-05-26T00:28:03.709Z,2.30
2018-05-26T00:30:31.013Z,2.30
2018-05-26T00:32:58.566Z,2.70
2018-05-26T00:35:25.844Z,2.62
2018-05-26T00:37:53.144Z,2.80
2018-05-26T00:40:20.416Z,3.00
2018-05-26T00:42:47.994Z,3.10
2018-05-26T00:45:15.256Z,2.67
2018-05-26T00:47:42.773Z,2.83
2018-05-26T00:50:10.084Z,3.00
2018-05-26T00:52:37.410Z,3.40
2018-05-26T00:55:04.714Z,3.10
2018-05-26T00:57:31.996Z,3.50
2018-05-26T00:59:59.301Z,3.10
2018-05-26T01:02:26.941Z,3.05
2018-05-26T01:04:54.218Z,3.40
2018-05-26T01:07:21.504Z,3.30
2018-05-26T01:09:48.773Z,3.40
2018-05-26T01:12:16.355Z,3.50
2018-05-26T01:14:43.670Z,3.50
2018-05-26T01:17:10.969Z,3.40
2018-05-26T01:19:38.293Z,3.50
2018-05-26T01:22:05.548Z,3.10
2018-05-26T01:24:32.874Z,3.55
2018-05-26T01:27:00.483Z,3.40
2018-05-26T01:29:27.764Z,3.30
2018-05-26T01:31:55.036Z,3.55
2018-05-26T01:34:22.651Z,3.08
2018-05-26T01:36:49.920Z,3.00
2018-05-26T01:39:17.233Z,3.30
2018-05-26T01:41:44.821Z,3.42
2018-05-26T01:44:12.138Z,3.20
2018-05-26T01:46:39.436Z,3.50
2018-05-26T01:49:06.721Z,3.30
2018-05-26T01:51:34.005Z,3.42
2018-05-26T01:54:01.602Z,3.20
2018-05-26T01:56:28.870Z,3.50
2018-05-26T01:58:56.547Z,3.40
2018-05-26T02:01:23.809Z,3.53
2018-05-26T02:03:51.134Z,3.28
2018-05-26T02:06:18.676Z,3.30
2018-05-26T02:08:45.998Z,3.50
2018-05-26T02:11:13.598Z,3.70
2018-05-26T02:13:40.913Z,3.55
2018-05-26T02:16:08.234Z,3.30
2018-05-26T02:18:35.541Z,3.50
2018-05-26T02:21:02.849Z,3.53
2018-05-26T02:23:30.165Z,3.40
2018-05-26T02:25:57.440Z,3.80
2018-05-26T02:28:24.774Z,3.40
2018-05-26T02:30:52.105Z,3.30
2018-05-26T02:33:19.697Z,3.60
2018-05-26T02:35:47.247Z,3.50
2018-05-26T02:38:14.809Z,3.60
2018-05-26T02:40:42.374Z,3.80
2018-05-26T02:43:09.716Z,3.47
2018-05-26T02:45:37.281Z,3.42
2018-05-26T02:48:04.602Z,3.75
2018-05-26T02:50:31.925Z,3.42
2018-05-26T02:52:59.194Z,3.80
2018-05-26T02:55:26.477Z,3.60
2018-05-26T02:57:54.063Z,3.90
2018-05-26T03:00:21.343Z,3.70
2018-05-26T03:02:48.616Z,3.17
2018-05-26T03:05:21.724Z,4.07
2018-05-26T03:07:54.828Z,4.05
2018-05-26T03:13:21.331Z,3.60
2018-05-26T03:16:07.400Z,3.97
2018-05-26T03:18:34.705Z,3.80
2018-05-26T03:21:02.312Z,4.10
2018-05-26T03:23:29.605Z,4.22
2018-05-26T03:25:56.880Z,4.40
2018-05-26T03:28:24.165Z,4.20
2018-05-26T03:30:51.733Z,4.07
2018-05-26T03:33:19.059Z,4.22
2018-05-26T03:35:46.360Z,4.00
2018-05-26T03:38:13.904Z,4.10
2018-05-26T03:40:41.213Z,4.20
2018-05-26T03:43:08.481Z,3.97
2018-05-26T03:45:35.769Z,4.10
2018-05-26T03:48:03.103Z,4.25
2018-05-26T03:50:30.679Z,4.10
2018-05-26T03:52:58.245Z,4.68
2018-05-26T03:55:31.353Z,4.20
2018-05-26T03:58:04.933Z,4.30
2018-05-26T04:00:32.467Z,4.70
2018-05-26T04:02:59.764Z,4.10
2018-05-26T04:05:27.082Z,4.30
2018-05-26T04:07:54.656Z,4.30
2018-05-26T04:10:21.970Z,3.90
2018-05-26T04:12:49.580Z,4.35
2018-05-26T04:15:17.237Z,4.30
2018-05-26T04:17:44.541Z,4.27
2018-05-26T04:20:11.828Z,4.50
2018-05-26T04:22:39.133Z,4.15
2018-05-26T04:25:06.447Z,4.90
2018-05-26T04:27:34.014Z,4.40
2018-05-26T04:30:01.304Z,4.40
2018-05-26T04:32:28.572Z,4.30
2018-05-26T04:34:56.286Z,4.00
2018-05-26T04:37:23.587Z,4.25
2018-05-26T04:39:51.196Z,4.22
2018-05-26T04:42:18.519Z,4.32
2018-05-26T04:44:45.834Z,4.20
2018-05-26T04:47:13.106Z,4.20
2018-05-26T04:49:40.393Z,4.10
2018-05-26T04:52:07.695Z,4.53
2018-05-26T04:54:35.224Z,4.20
2018-05-26T04:57:02.785Z,4.20
2018-05-26T04:59:30.097Z,4.20
2018-05-26T05:01:57.623Z,4.20
2018-05-26T05:04:24.908Z,4.10
2018-05-26T05:06:52.217Z,4.35
2018-05-26T05:09:19.772Z,4.03
2018-05-26T05:11:47.076Z,4.37
2018-05-26T05:14:14.692Z,4.00
2018-05-26T05:16:41.978Z,4.20
2018-05-26T05:19:09.278Z,4.05
2018-05-26T05:21:36.826Z,4.13
2018-05-26T05:24:04.409Z,4.10
2018-05-26T05:26:31.972Z,4.22
2018-05-26T05:28:59.273Z,3.50
2018-05-26T05:31:26.990Z,4.03
2018-05-26T05:33:54.302Z,4.40
2018-05-26T05:36:22.047Z,4.10
2018-05-26T05:38:49.564Z,3.62
2018-05-26T05:41:17.129Z,3.85
2018-05-26T05:43:44.441Z,3.65
2018-05-26T05:46:12.041Z,3.80
2018-05-26T05:48:39.350Z,3.75
2018-05-26T05:51:06.629Z,4.18
2018-05-26T05:53:34.208Z,4.28
2018-05-26T05:56:01.773Z,4.15
2018-05-26T05:58:29.057Z,4.18
2018-05-26T06:00:56.346Z,4.00
2018-05-26T06:03:23.624Z,3.92
2018-05-26T06:05:50.946Z,4.33
2018-05-26T06:08:18.545Z,3.72
2018-05-26T06:10:45.866Z,3.78
2018-05-26T06:13:13.169Z,4.60
2018-05-26T06:15:40.501Z,4.07
2018-05-26T06:18:08.075Z,3.85
2018-05-26T06:20:35.390Z,4.00
2018-05-26T06:23:02.686Z,3.70
2018-05-26T06:25:29.993Z,3.90
2018-05-26T06:27:57.303Z,3.53
2018-05-26T06:30:24.586Z,3.95
2018-05-26T06:32:51.890Z,3.70
2018-05-26T06:35:19.458Z,4.60
2018-05-26T06:37:46.809Z,5.20
2018-05-26T06:40:14.064Z,3.97
2018-05-26T06:42:41.342Z,4.03
2018-05-26T06:45:08.612Z,4.25
2018-05-26T06:47:35.926Z,4.10
2018-05-26T06:50:03.417Z,3.85
2018-05-26T06:52:30.738Z,4.30
2018-05-26T06:54:58.293Z,3.60
2018-05-26T06:57:25.609Z,3.83
2018-05-26T06:59:52.905Z,4.20
2018-05-26T07:02:20.565Z,4.80
2018-05-26T07:04:47.897Z,4.00
2018-05-26T07:07:15.483Z,4.00
2018-05-26T07:09:42.791Z,3.95
2018-05-26T07:12:10.077Z,3.67
2018-05-26T07:14:37.406Z,3.60
2018-05-26T07:17:05.010Z,3.80
2018-05-26T07:19:32.285Z,4.10
2018-05-26T07:21:59.614Z,3.72
2018-05-26T07:24:26.940Z,3.95
2018-05-26T07:26:54.255Z,4.00
2018-05-26T07:29:21.529Z,5.30
2018-05-26T07:31:48.828Z,4.65
2018-05-26T07:34:16.327Z,4.30
2018-05-26T07:36:43.661Z,4.65
2018-05-26T07:39:10.932Z,4.50
2018-05-26T07:41:38.251Z,3.92
2018-05-26T07:44:05.545Z,4.30
2018-05-26T07:46:32.886Z,4.03
2018-05-26T07:49:00.417Z,3.92
2018-05-26T07:51:27.712Z,4.20
2018-05-26T07:53:55.037Z,4.00
2018-05-26T07:56:22.401Z,3.90
2018-05-26T07:58:49.648Z,4.40
2018-05-26T08:01:17.198Z,3.90
2018-05-26T08:03:44.759Z,4.00
2018-05-26T08:06:12.418Z,4.03
2018-05-26T08:08:39.683Z,4.30
2018-05-26T08:11:06.985Z,5.40
2018-05-26T08:13:34.293Z,4.47
2018-05-26T08:16:01.576Z,5.07
2018-05-26T08:18:28.898Z,3.90
2018-05-26T08:20:56.213Z,4.00
2018-05-26T08:23:23.497Z,4.27
2018-05-26T08:25:50.777Z,4.30
2018-05-26T08:28:18.090Z,4.20
2018-05-26T08:30:45.770Z,4.12
2018-05-26T08:33:13.082Z,3.80
2018-05-26T08:35:40.347Z,4.30
2018-05-26T08:38:07.659Z,3.72
2018-05-26T08:40:34.965Z,3.90
2018-05-26T08:43:02.285Z,4.50
2018-05-26T08:45:29.631Z,4.30
2018-05-26T08:47:56.918Z,4.27
2018-05-26T08:50:24.225Z,3.83
2018-05-26T08:52:51.503Z,4.10
2018-05-26T08:55:18.818Z,3.97
2018-05-26T08:57:46.365Z,4.00
2018-05-26T09:00:13.636Z,4.15
2018-05-26T09:02:40.958Z,3.80
2018-05-26T09:05:08.540Z,3.87
2018-05-26T09:07:35.841Z,5.70
2018-05-26T09:10:03.161Z,4.00
2018-05-26T09:12:30.449Z,4.15
2018-05-26T09:14:57.777Z,4.35
2018-05-26T09:17:25.131Z,4.75
2018-05-26T09:19:52.672Z,3.90
2018-05-26T09:22:20.220Z,4.03
2018-05-26T09:24:47.498Z,4.40
2018-05-26T09:27:14.815Z,4.00
2018-05-26T09:29:42.119Z,4.07
2018-05-26T09:32:09.404Z,4.55
2018-05-26T09:34:37.002Z,4.70
2018-05-26T09:37:04.326Z,3.60
2018-05-26T09:39:31.916Z,3.30
2018-05-26T09:41:59.197Z,3.20
2018-05-26T09:44:26.729Z,3.33
2018-05-26T09:46:54.032Z,4.00
2018-05-26T09:49:21.640Z,4.00
2018-05-26T09:51:48.949Z,3.20
2018-05-26T09:54:16.492Z,3.40
2018-05-26T09:56:44.117Z,3.03
2018-05-26T09:59:11.442Z,3.50
2018-05-26T10:01:39.037Z,3.10
2018-05-26T10:04:06.322Z,3.80
2018-05-26T10:06:33.626Z,3.40
2018-05-26T10:09:00.935Z,3.30
2018-05-26T10:11:28.249Z,3.20
2018-05-26T10:13:55.570Z,3.53
2018-05-26T10:16:22.860Z,3.80
2018-05-26T10:18:50.173Z,3.75
2018-05-26T10:21:17.487Z,3.33
2018-05-26T10:23:45.130Z,3.37
2018-05-26T10:26:12.490Z,4.30
2018-05-26T10:28:40.050Z,3.10
2018-05-26T10:31:07.316Z,3.30
2018-05-26T10:33:34.973Z,2.70
2018-05-26T10:36:02.241Z,2.70
2018-05-26T10:38:29.772Z,3.03
2018-05-26T10:40:57.329Z,2.90
2018-05-26T10:43:24.650Z,3.20
2018-05-26T10:45:57.716Z,3.20
2018-05-26T10:48:25.021Z,3.20
2018-05-26T10:50:52.589Z,3.00
2018-05-26T10:53:20.100Z,3.53
2018-05-26T10:55:47.429Z,4.00
2018-05-26T10:58:14.961Z,5.10
2018-05-26T11:00:42.310Z,6.75
2018-05-26T11:03:09.638Z,5.90
2018-05-26T11:05:36.980Z,5.80
2018-05-26T11:08:04.339Z,5.53
2018-05-26T11:10:31.724Z,5.63
2018-05-26T11:12:59.307Z,4.90
2018-05-26T11:15:26.873Z,5.30
2018-05-26T11:17:54.412Z,5.37
2018-05-26T11:20:21.569Z,7.60
2018-05-26T11:22:48.905Z,6.70
2018-05-26T11:25:16.496Z,6.50
2018-05-26T11:27:43.843Z,5.32
2018-05-26T11:30:11.409Z,5.20
2018-05-26T11:32:38.714Z,4.80
2018-05-26T11:35:06.067Z,4.40
2018-05-26T11:37:33.685Z,4.37
2018-05-26T11:40:01.008Z,6.25
2018-05-26T11:42:28.318Z,6.10
2018-05-26T11:44:55.642Z,3.87
2018-05-26T11:47:22.983Z,3.80
2018-05-26T11:49:50.335Z,3.87
2018-05-26T11:52:17.662Z,3.80
2018-05-26T11:54:45.208Z,4.40
2018-05-26T11:57:12.691Z,4.03
2018-05-26T11:59:40.297Z,3.80
2018-05-26T12:02:07.891Z,4.45
2018-05-26T12:04:37.045Z,5.00
2018-05-26T12:07:04.884Z,3.73
2018-05-26T12:09:33.236Z,4.35
2018-05-26T12:12:00.823Z,3.50
2018-05-26T12:14:28.567Z,3.40
2018-05-26T12:16:56.020Z,4.07
2018-05-26T12:19:23.590Z,3.50
2018-05-26T12:21:51.112Z,3.30
2018-05-26T12:24:18.442Z,3.25
2018-05-26T12:26:45.940Z,3.30
2018-05-26T12:29:13.286Z,3.80
2018-05-26T12:31:40.884Z,3.50
2018-05-26T12:34:08.226Z,3.33
2018-05-26T12:36:35.719Z,3.15
2018-05-26T12:39:03.053Z,3.58
2018-05-26T12:41:30.379Z,3.80
2018-05-26T12:43:57.839Z,3.80
2018-05-26T12:46:25.136Z,3.55
2018-05-26T12:48:52.479Z,3.62
2018-05-26T12:51:19.806Z,3.70
2018-05-26T12:53:47.126Z,3.50
2018-05-26T12:56:14.581Z,3.47
2018-05-26T12:58:41.928Z,3.30
2018-05-26T13:01:09.249Z,3.23
2018-05-26T13:03:37.109Z,2.80
2018-05-26T13:06:04.473Z,4.00
2018-05-26T13:08:31.773Z,3.00
2018-05-26T13:10:59.093Z,3.00
2018-05-26T13:13:26.686Z,3.20
2018-05-26T13:15:54.031Z,2.90
2018-05-26T13:18:21.447Z,2.90
2018-05-26T13:20:48.797Z,2.70
2018-05-26T13:23:16.635Z,3.10
2018-05-26T13:25:44.145Z,3.17
2018-05-26T13:28:11.483Z,2.90
2018-05-26T13:30:38.837Z,2.90
2018-05-26T13:33:06.176Z,3.25
2018-05-26T13:35:33.515Z,3.10
2018-05-26T13:38:00.934Z,3.10
2018-05-26T13:40:28.279Z,3.40
2018-05-26T13:42:55.587Z,3.45
2018-05-26T13:45:22.939Z,3.10
2018-05-26T13:47:50.267Z,3.40
2018-05-26T13:50:17.586Z,3.20
2018-05-26T13:52:44.954Z,3.20
2018-05-26T13:55:12.338Z,3.10
2018-05-26T13:57:39.607Z,3.30
2018-05-26T14:00:06.992Z,3.67
2018-05-26T14:02:34.310Z,3.37
2018-05-26T14:05:01.717Z,3.60
2018-05-26T14:07:29.027Z,3.58
2018-05-26T14:09:56.376Z,3.42
2018-05-26T14:12:23.707Z,3.42
2018-05-26T14:14:51.172Z,3.40
2018-05-26T14:17:18.586Z,2.78
2018-05-26T14:19:45.873Z,3.08
2018-05-26T14:22:13.189Z,3.42
2018-05-26T14:24:40.506Z,3.30
2018-05-26T14:27:07.981Z,3.47
2018-05-26T14:29:35.371Z,3.70
2018-05-26T14:32:02.969Z,3.05
2018-05-26T14:34:30.315Z,3.00
2018-05-26T14:36:57.642Z,3.33
2018-05-26T14:39:24.976Z,2.90
2018-05-26T14:41:52.333Z,2.58
2018-05-26T14:44:19.639Z,2.53
2018-05-26T14:46:47.091Z,2.50
2018-05-26T14:49:14.429Z,2.55
2018-05-26T14:51:41.782Z,2.28
2018-05-26T14:54:09.206Z,2.20
2018-05-26T14:56:36.587Z,2.40
2018-05-26T14:59:03.948Z,2.20
2018-05-26T15:01:31.311Z,2.40
2018-05-26T15:03:58.655Z,2.60
2018-05-26T15:06:25.974Z,2.90
2018-05-26T15:08:53.609Z,2.37
2018-05-26T15:11:21.183Z,2.60
2018-05-26T15:13:48.563Z,2.33
2018-05-26T15:16:15.918Z,2.50
2018-05-26T15:18:43.227Z,2.10
2018-05-26T15:21:10.686Z,2.87
2018-05-26T15:23:37.988Z,2.40
2018-05-26T15:26:05.362Z,2.10
2018-05-26T15:28:32.748Z,2.30
2018-05-26T15:31:00.345Z,2.03
2018-05-26T15:33:27.642Z,2.30
2018-05-26T15:35:54.989Z,2.20
2018-05-26T15:38:22.351Z,2.00
2018-05-26T15:40:49.684Z,2.00
2018-05-26T15:43:16.985Z,1.80
2018-05-26T15:45:44.338Z,1.80
2018-05-26T15:48:11.668Z,2.00
2018-05-26T15:50:39.015Z,1.58
2018-05-26T15:53:06.360Z,1.73
2018-05-26T15:55:33.699Z,1.50
2018-05-26T15:58:01.054Z,1.50
2018-05-26T16:00:28.383Z,1.70
2018-05-26T16:02:55.685Z,1.60
2018-05-26T16:05:23.013Z,1.40
2018-05-26T16:07:50.401Z,1.60
2018-05-26T16:10:17.907Z,1.98
2018-05-26T16:12:45.226Z,1.60
2018-05-26T16:15:12.567Z,1.50
2018-05-26T16:17:40.061Z,1.50
2018-05-26T16:20:07.432Z,1.50
2018-05-26T16:22:34.795Z,1.40
2018-05-26T16:25:02.146Z,1.67
2018-05-26T16:27:29.491Z,1.60
2018-05-26T16:29:57.042Z,1.67
2018-05-26T16:32:24.399Z,1.50
2018-05-26T16:34:51.738Z,1.48
2018-05-26T16:37:19.316Z,1.70
2018-05-26T16:39:46.680Z,1.90
2018-05-26T16:42:14.028Z,1.98
2018-05-26T16:44:41.594Z,2.17
2018-05-26T16:47:08.939Z,1.70
2018-05-26T16:49:36.293Z,1.90
2018-05-26T16:52:03.755Z,2.10
2018-05-26T16:54:31.247Z,1.90
2018-05-26T16:56:58.616Z,2.00
2018-05-26T16:59:26.048Z,2.00
2018-05-26T17:01:53.377Z,2.10
2018-05-26T17:04:20.882Z,1.98
2018-05-26T17:06:48.234Z,2.37
2018-05-26T17:09:15.855Z,1.90
2018-05-26T17:11:43.201Z,1.90
2018-05-26T17:14:10.769Z,2.20
2018-05-26T17:16:38.132Z,2.08
2018-05-26T17:19:05.622Z,2.20
2018-05-26T17:21:32.958Z,2.10
2018-05-26T17:24:00.323Z,2.00
2018-05-26T17:26:27.678Z,2.00
2018-05-26T17:28:55.029Z,2.22
2018-05-26T17:31:22.399Z,2.90
2018-05-26T17:33:49.746Z,2.72
2018-05-26T17:36:17.063Z,1.95
2018-05-26T17:38:44.361Z,2.20
2018-05-26T17:41:11.726Z,2.10
2018-05-26T17:43:39.036Z,1.73
2018-05-26T17:46:06.376Z,1.80
2018-05-26T17:48:33.697Z,1.60
2018-05-26T17:51:01.005Z,1.98
2018-05-26T17:53:28.363Z,1.90
2018-05-26T17:55:55.677Z,1.83
2018-05-26T17:58:23.089Z,2.20
2018-05-26T18:00:50.439Z,1.92
2018-05-26T18:03:17.865Z,2.30
2018-05-26T18:05:45.147Z,2.00
2018-05-26T18:08:12.462Z,2.20
2018-05-26T18:10:39.777Z,2.10
2018-05-26T18:13:07.151Z,2.30
2018-05-26T18:15:34.453Z,2.40
2018-05-26T18:18:01.815Z,3.30
2018-05-26T18:20:29.166Z,2.50
2018-05-26T18:22:56.458Z,3.00
2018-05-26T18:25:23.984Z,2.47
2018-05-26T18:27:51.315Z,2.70
2018-05-26T18:30:18.620Z,2.37
2018-05-26T18:32:45.995Z,3.50
2018-05-26T18:35:13.278Z,2.40
2018-05-26T18:37:40.610Z,2.70
2018-05-26T18:40:07.952Z,2.70
2018-05-26T18:42:35.275Z,2.75
2018-05-26T18:45:02.621Z,3.00
2018-05-26T18:47:29.967Z,2.72
2018-05-26T18:49:57.265Z,2.75
2018-05-26T18:52:24.619Z,3.30
2018-05-26T18:54:51.947Z,3.20
2018-05-26T18:57:19.341Z,3.20
2018-05-26T18:59:46.819Z,3.20
2018-05-26T19:02:14.141Z,3.80
2018-05-26T19:04:41.487Z,4.00
2018-05-26T19:07:08.843Z,4.30
2018-05-26T19:09:36.198Z,4.20
2018-05-26T19:12:03.558Z,5.05
2018-05-26T19:14:30.873Z,3.80
2018-05-26T19:16:58.185Z,4.90
2018-05-26T19:19:25.706Z,3.90
2018-05-26T19:21:53.083Z,5.10
2018-05-26T19:24:20.697Z,4.15
2018-05-26T19:26:48.370Z,3.90
2018-05-26T19:29:15.922Z,4.00
2018-05-26T19:31:43.250Z,4.55
2018-05-26T19:34:10.637Z,3.73
2018-05-26T19:36:37.959Z,3.40
2018-05-26T19:39:05.286Z,5.15
2018-05-26T19:41:32.906Z,5.72
2018-05-26T19:44:00.583Z,5.87
2018-05-26T19:46:27.890Z,4.82
2018-05-26T19:48:55.244Z,4.00
2018-05-26T19:51:22.582Z,5.60
2018-05-26T19:53:49.920Z,4.78
2018-05-26T19:56:17.555Z,4.87
2018-05-26T19:58:44.915Z,4.40
2018-05-26T20:01:12.222Z,4.20
2018-05-26T20:03:39.927Z,4.20
2018-05-26T20:06:07.534Z,3.80
2018-05-26T20:08:34.841Z,4.20
2018-05-26T20:11:02.143Z,3.70
2018-05-26T20:13:29.491Z,3.90
2018-05-26T20:15:56.843Z,3.90
2018-05-26T20:18:24.185Z,4.60
2018-05-26T20:20:51.535Z,3.95
2018-05-26T20:23:19.173Z,4.25
2018-05-26T20:25:46.511Z,3.80
2018-05-26T20:28:13.867Z,3.70
2018-05-26T20:30:41.443Z,4.70
2018-05-26T20:33:08.783Z,4.05
2018-05-26T20:35:36.095Z,4.30
2018-05-26T20:38:03.717Z,4.20
2018-05-26T20:40:31.034Z,3.80
2018-05-26T20:42:58.330Z,3.95
2018-05-26T20:45:25.878Z,3.87
2018-05-26T20:47:53.211Z,4.30
2018-05-26T20:50:20.538Z,4.10
2018-05-26T20:52:47.883Z,4.00
2018-05-26T20:55:15.242Z,3.90
2018-05-26T20:57:42.869Z,3.90
2018-05-26T21:00:10.198Z,4.53
2018-05-26T21:02:37.547Z,4.20
2018-05-26T21:05:05.026Z,4.25
2018-05-26T21:07:32.356Z,4.25
2018-05-26T21:09:59.665Z,4.50
2018-05-26T21:12:26.982Z,4.40
2018-05-26T21:14:54.304Z,4.70
2018-05-26T21:17:21.910Z,4.40
2018-05-26T21:19:49.227Z,4.70
2018-05-26T21:22:16.753Z,4.40
2018-05-26T21:24:44.069Z,4.60
2018-05-26T21:27:11.411Z,4.45
2018-05-26T21:29:38.732Z,4.70
2018-05-26T21:32:06.054Z,4.15
2018-05-26T21:34:33.411Z,4.60
2018-05-26T21:37:00.737Z,4.95
2018-05-26T21:39:28.104Z,4.90
2018-05-26T21:41:55.406Z,4.90
2018-05-26T21:44:22.748Z,4.82
2018-05-26T21:46:50.297Z,4.80
2018-05-26T21:49:17.889Z,4.65
2018-05-26T21:51:45.493Z,4.60
2018-05-26T21:54:12.855Z,4.82
2018-05-26T21:56:40.162Z,4.57
2018-05-26T21:59:07.502Z,4.60
2018-05-26T22:01:34.843Z,4.90
2018-05-26T22:04:02.436Z,4.62
2018-05-26T22:06:29.788Z,4.80
2018-05-26T22:08:57.399Z,4.70
2018-05-26T22:11:24.983Z,4.90
2018-05-26T22:13:52.331Z,5.03
2018-05-26T22:16:19.974Z,5.00
2018-05-26T22:18:47.290Z,5.00
2018-05-26T22:21:14.614Z,4.75
2018-05-26T22:23:41.913Z,5.20
2018-05-26T22:26:09.631Z,5.40
2018-05-26T22:28:37.267Z,5.40
2018-05-26T22:31:04.631Z,5.00
2018-05-26T22:33:31.995Z,5.10
2018-05-26T22:35:59.322Z,5.30
2018-05-26T22:38:26.625Z,5.30
2018-05-26T22:40:57.842Z,5.20
2018-05-26T22:43:25.911Z,5.07
2018-05-26T22:45:53.483Z,4.97
2018-05-26T22:48:20.778Z,4.90
2018-05-26T22:50:48.182Z,5.57
2018-05-26T22:53:15.535Z,8.90
2018-05-26T22:55:42.854Z,7.10
2018-05-26T22:58:10.124Z,5.53
2018-05-26T23:00:37.425Z,6.30
2018-05-26T23:03:04.722Z,5.60
2018-05-26T23:05:32.228Z,5.27
2018-05-26T23:07:59.508Z,5.10
2018-05-26T23:10:26.826Z,5.30
2018-05-26T23:12:54.127Z,5.75
2018-05-26T23:15:21.437Z,5.62
2018-05-26T23:17:49.064Z,5.87
2018-05-26T23:20:16.395Z,5.45
2018-05-26T23:22:43.799Z,6.10
2018-05-26T23:25:11.191Z,6.03
2018-05-26T23:27:38.482Z,6.20
2018-05-26T23:30:05.869Z,6.10
2018-05-26T23:32:33.198Z,6.00
2018-05-26T23:35:00.514Z,6.18
2018-05-26T23:37:27.808Z,6.10
2018-05-26T23:39:55.162Z,6.10
2018-05-26T23:42:22.610Z,5.87
2018-05-26T23:44:49.937Z,5.47
2018-05-26T23:47:17.954Z,5.47
2018-05-26T23:49:45.254Z,5.40
2018-05-26T23:52:12.634Z,5.17
2018-05-26T23:54:39.901Z,5.40
2018-05-26T23:57:07.219Z,6.22
2018-05-26T23:59:34.522Z,6.90
